KFAR/FAR METAR and TAF weather

Enter ICAO airport designator
Station Type Date Time Source
KFAR METAR 2020/03/31 12:53 UTC NOAA

KFAR 311253Z 15012KT 10SM CLR 03/M03 A3009 RMK AO2 SLP195 T00331028


Station Type Date Time Source
KFAR Decoded METAR 2020/03/31 12:53 UTC NOAA

HECTOR INTERNATIONAL AIRPORT , ND, United States (KFAR) 46-56N 096-49W 277M
Mar 31, 2020 - 08:53 AM EDT / 2020.03.31 1253 UTC
Wind: from the SSE (150 degrees) at 14 MPH (12 KT):0
Visibility: 10 mile(s):0
Sky conditions: clear
Temperature: 37.9 F (3.3 C)
Dew Point: 27.0 F (-2.8 C)
Relative Humidity: 64%
Pressure (altimeter): 30.09 in. Hg (1018 hPa)
ob: KFAR 311253Z 15012KT 10SM CLR 03/M03 A3009 RMK AO2 SLP195 T00331028
cycle: 13

Station Type Date Time Source
KFAR TAF 2020/03/31 12:22 UTC NOAA

TAF KFAR 311120Z 3112/0112 15013G21KT P6SM SKC
FM010400 13012G20KT P6SM OVC080
FM010700 13014KT P6SM BKN070

Example: see airport list